Check out our new BloomSky Weather System.

Active alerts

Houston, TX
  Details for Houston, TX Dense Fog Advisory


Thunder radar  blitzortung!


Rain radar more information rain snow radar


Visit our other weather sites:

Template documentation
and downloads

And another site



Weather Underground History page Text

Daily Summary for February 11, 2017 Units:  English    Metric   Both
« Previous Day
Next Day »
Daily Weekly Monthly Yearly Custom
  High: Low: Average:
Temperature: 85.5 °F 70.7 °F 75.6 °F
Dew Point: 71.4 °F 67.5 °F 69.4 °F
Humidity: 94 % 60 % 82 %
Wind Speed: 20.0 mph 0.0 mph 5.7 mph
Wind Gust: 22.0 mph - -
Wind:- - South
Pressure: 30.08 in 29.97 in -
Precipitation: 0.00 in    
Historical Graphs
 
 
Tabular Data for February 11, 2017
Time Temperature Dew Point Pressure Wind Wind Speed Wind Gust Humidity Rainfall Rate (Hourly)
00:03 71.1 °F 68.9 °F 30.05 in SSE 6.0 mph 9.0 mph 93 % 0.00 in
00:08 71.1 °F 68.9 °F 30.05 in SSE 7.0 mph 11.0 mph 93 % 0.00 in
00:13 71.2 °F 69.1 °F 30.05 in ESE 4.0 mph 11.0 mph 93 % 0.00 in
00:18 71.2 °F 69.1 °F 30.04 in SSE 5.0 mph 11.0 mph 93 % 0.00 in
00:23 71.2 °F 69.1 °F 30.04 in South 2.0 mph 11.0 mph 93 % 0.00 in
00:28 71.2 °F 69.1 °F 30.04 in South 9.0 mph 10.0 mph 93 % 0.00 in
00:33 71.2 °F 69.1 °F 30.05 in SSE 5.0 mph 10.0 mph 93 % 0.00 in
00:38 71.2 °F 69.1 °F 30.05 in SW 11.0 mph 11.0 mph 93 % 0.00 in
00:43 71.2 °F 68.7 °F 30.05 in South 7.0 mph 14.0 mph 92 % 0.00 in
00:48 71.1 °F 68.5 °F 30.05 in SE 6.0 mph 14.0 mph 92 % 0.00 in
00:53 71.2 °F 68.7 °F 30.05 in South 8.0 mph 14.0 mph 92 % 0.00 in
00:58 71.2 °F 68.7 °F 30.04 in SSE 6.0 mph 13.0 mph 92 % 0.00 in
01:03 71.2 °F 68.7 °F 30.05 in South 3.0 mph 13.0 mph 92 % 0.00 in
01:08 71.2 °F 68.7 °F 30.05 in South 3.0 mph 13.0 mph 92 % 0.00 in
01:13 71.2 °F 68.7 °F 30.05 in SSE 4.0 mph 12.0 mph 92 % 0.00 in
01:18 71.4 °F 68.9 °F 30.04 in South 8.0 mph 11.0 mph 92 % 0.00 in
01:23 71.2 °F 68.7 °F 30.04 in SSE 4.0 mph 11.0 mph 92 % 0.00 in
01:28 71.2 °F 68.7 °F 30.04 in SSW 6.0 mph 11.0 mph 92 % 0.00 in
01:33 71.2 °F 68.7 °F 30.04 in South 4.0 mph 11.0 mph 92 % 0.00 in
01:38 71.2 °F 68.7 °F 30.04 in South 3.0 mph 10.0 mph 92 % 0.00 in
01:43 71.2 °F 68.7 °F 30.04 in SSE 3.0 mph 8.0 mph 92 % 0.00 in
01:48 71.2 °F 68.7 °F 30.04 in SE 3.0 mph 8.0 mph 92 % 0.00 in
01:53 71.2 °F 68.7 °F 30.04 in SSE 5.0 mph 9.0 mph 92 % 0.00 in
01:58 71.1 °F 68.5 °F 30.04 in SSE 7.0 mph 9.0 mph 92 % 0.00 in
02:03 71.1 °F 68.5 °F 30.03 in SSE 4.0 mph 9.0 mph 92 % 0.00 in
02:08 71.1 °F 68.5 °F 30.03 in SSW 5.0 mph 9.0 mph 92 % 0.00 in
02:13 71.1 °F 68.5 °F 30.03 in SSE 3.0 mph 10.0 mph 92 % 0.00 in
02:18 71.1 °F 68.5 °F 30.03 in South 5.0 mph 10.0 mph 92 % 0.00 in
02:23 70.9 °F 68.4 °F 30.03 in South 5.0 mph 10.0 mph 92 % 0.00 in
02:28 70.9 °F 68.7 °F 30.03 in SSE 3.0 mph 9.0 mph 93 % 0.00 in
02:33 70.9 °F 68.7 °F 30.03 in South 3.0 mph 9.0 mph 93 % 0.00 in
02:38 70.9 °F 68.7 °F 30.03 in South 3.0 mph 9.0 mph 93 % 0.00 in
02:43 70.9 °F 68.7 °F 30.03 in SSE 2.0 mph 8.0 mph 93 % 0.00 in
02:48 70.9 °F 68.7 °F 30.03 in SE 1.0 mph 6.0 mph 93 % 0.00 in
02:53 70.9 °F 68.7 °F 30.03 in SSW 4.0 mph 8.0 mph 93 % 0.00 in
02:58 70.9 °F 68.7 °F 30.03 in WSW 5.0 mph 8.0 mph 93 % 0.00 in
03:03 70.9 °F 68.7 °F 30.03 in SSW 4.0 mph 8.0 mph 93 % 0.00 in
03:09 70.9 °F 68.7 °F 30.04 in SSW 2.0 mph 9.0 mph 93 % 0.00 in
03:14 70.9 °F 68.7 °F 30.04 in SSW 2.0 mph 9.0 mph 93 % 0.00 in
03:19 70.9 °F 68.7 °F 30.04 in South 5.0 mph 9.0 mph 93 % 0.00 in
03:24 70.9 °F 68.7 °F 30.04 in SSW 2.0 mph 7.0 mph 93 % 0.00 in
03:29 70.9 °F 68.4 °F 30.04 in SSE 3.0 mph 7.0 mph 92 % 0.00 in
03:34 71.1 °F 68.5 °F 30.04 in SSW 6.0 mph 9.0 mph 92 % 0.00 in
03:39 71.1 °F 68.5 °F 30.03 in SSE 2.0 mph 9.0 mph 92 % 0.00 in
03:44 71.1 °F 68.5 °F 30.03 in SE 7.0 mph 9.0 mph 92 % 0.00 in
03:49 71.2 °F 68.7 °F 30.04 in South 3.0 mph 9.0 mph 92 % 0.00 in
03:54 71.2 °F 68.7 °F 30.03 in SSW 3.0 mph 9.0 mph 92 % 0.00 in
03:59 71.2 °F 68.7 °F 30.03 in South 3.0 mph 9.0 mph 92 % 0.00 in
04:04 71.2 °F 68.7 °F 30.03 in WSW 3.0 mph 10.0 mph 92 % 0.00 in
04:09 71.2 °F 68.7 °F 30.03 in SSW 3.0 mph 10.0 mph 92 % 0.00 in
04:14 71.1 °F 68.5 °F 30.03 in SSE 4.0 mph 10.0 mph 92 % 0.00 in
04:19 71.2 °F 68.7 °F 30.03 in SW 4.0 mph 7.0 mph 92 % 0.00 in
04:24 71.2 °F 68.7 °F 30.03 in South 4.0 mph 7.0 mph 92 % 0.00 in
04:29 71.1 °F 68.5 °F 30.03 in Calm   7.0 mph 92 % 0.00 in
04:34 71.1 °F 68.5 °F 30.03 in SSE 4.0 mph 7.0 mph 92 % 0.00 in
04:39 71.1 °F 68.9 °F 30.03 in South 2.0 mph 8.0 mph 93 % 0.00 in
04:44 71.1 °F 68.9 °F 30.03 in South 6.0 mph 8.0 mph 93 % 0.00 in
04:49 71.1 °F 68.5 °F 30.03 in SSW 2.0 mph 8.0 mph 92 % 0.00 in
04:54 71.1 °F 68.9 °F 30.04 in South 3.0 mph 7.0 mph 93 % 0.00 in
04:59 71.1 °F 68.9 °F 30.04 in SE 3.0 mph 8.0 mph 93 % 0.00 in
05:04 71.1 °F 68.9 °F 30.04 in SSE 3.0 mph 8.0 mph 93 % 0.00 in
05:09 71.2 °F 69.1 °F 30.03 in SW 2.0 mph 9.0 mph 93 % 0.00 in
05:14 71.1 °F 68.9 °F 30.04 in SSE 2.0 mph 9.0 mph 93 % 0.00 in
05:19 71.1 °F 68.9 °F 30.04 in SSE 2.0 mph 9.0 mph 93 % 0.00 in
05:24 71.1 °F 68.9 °F 30.04 in SSE 1.0 mph 6.0 mph 93 % 0.00 in
05:29 71.1 °F 68.9 °F 30.04 in South 2.0 mph 5.0 mph 93 % 0.00 in
05:34 71.1 °F 68.9 °F 30.04 in South 2.0 mph 4.0 mph 93 % 0.00 in
05:39 71.1 °F 68.9 °F 30.03 in SSW 3.0 mph 4.0 mph 93 % 0.00 in
05:44 71.1 °F 68.9 °F 30.03 in South 4.0 mph 6.0 mph 93 % 0.00 in
05:49 71.2 °F 69.1 °F 30.04 in South 4.0 mph 6.0 mph 93 % 0.00 in
05:54 71.2 °F 69.1 °F 30.04 in SSE 5.0 mph 6.0 mph 93 % 0.00 in
05:59 71.2 °F 69.1 °F 30.04 in SSW 2.0 mph 8.0 mph 93 % 0.00 in
06:04 71.2 °F 69.1 °F 30.04 in South 4.0 mph 9.0 mph 93 % 0.00 in
06:09 71.2 °F 69.1 °F 30.04 in South 5.0 mph 9.0 mph 93 % 0.00 in
06:14 71.2 °F 69.1 °F 30.04 in SSE 5.0 mph 9.0 mph 93 % 0.00 in
06:19 71.4 °F 69.3 °F 30.04 in SE 4.0 mph 8.0 mph 93 % 0.00 in
06:24 71.4 °F 69.3 °F 30.04 in SSW 2.0 mph 8.0 mph 93 % 0.00 in
06:29 71.4 °F 69.3 °F 30.04 in SSE 2.0 mph 8.0 mph 93 % 0.00 in
06:34 71.4 °F 69.6 °F 30.05 in SSE 2.0 mph 7.0 mph 94 % 0.00 in
06:39 71.4 °F 69.6 °F 30.05 in South 1.0 mph 5.0 mph 94 % 0.00 in
06:44 71.4 °F 69.6 °F 30.05 in SSE 6.0 mph 6.0 mph 94 % 0.00 in
06:49 71.4 °F 69.3 °F 30.05 in South 2.0 mph 9.0 mph 93 % 0.00 in
06:54 71.4 °F 69.3 °F 30.05 in SSW 5.0 mph 9.0 mph 93 % 0.00 in
06:59 71.6 °F 69.8 °F 30.05 in SSW 4.0 mph 9.0 mph 94 % 0.00 in
07:04 71.6 °F 69.4 °F 30.05 in SW 3.0 mph 11.0 mph 93 % 0.00 in
07:10 71.8 °F 69.6 °F 30.05 in SW 5.0 mph 11.0 mph 93 % 0.00 in
07:15 71.6 °F 69.4 °F 30.05 in SSW 5.0 mph 11.0 mph 93 % 0.00 in
07:20 71.6 °F 69.4 °F 30.05 in SSW 3.0 mph 11.0 mph 93 % 0.00 in
07:25 71.6 °F 69.4 °F 30.06 in SW 5.0 mph 11.0 mph 93 % 0.00 in
07:30 71.6 °F 69.4 °F 30.06 in South 4.0 mph 8.0 mph 93 % 0.00 in
07:35 71.8 °F 69.6 °F 30.06 in South 3.0 mph 8.0 mph 93 % 0.00 in
07:40 71.8 °F 69.6 °F 30.06 in SSW 3.0 mph 7.0 mph 93 % 0.00 in
07:45 71.8 °F 69.6 °F 30.06 in SSE 3.0 mph 6.0 mph 93 % 0.00 in
07:50 72.0 °F 69.8 °F 30.06 in SSE 2.0 mph 7.0 mph 93 % 0.00 in
07:55 72.0 °F 69.8 °F 30.06 in South 6.0 mph 8.0 mph 93 % 0.00 in
08:00 72.1 °F 70.0 °F 30.06 in SW 6.0 mph 8.0 mph 93 % 0.00 in
08:05 72.1 °F 70.0 °F 30.06 in SW 2.0 mph 9.0 mph 93 % 0.00 in
08:10 72.3 °F 69.8 °F 30.06 in South 11.0 mph 13.0 mph 92 % 0.00 in
08:15 72.3 °F 69.8 °F 30.07 in SSW 3.0 mph 13.0 mph 92 % 0.00 in
08:20 72.5 °F 70.0 °F 30.06 in South 3.0 mph 13.0 mph 92 % 0.00 in
08:25 72.5 °F 70.0 °F 30.06 in SE 5.0 mph 11.0 mph 92 % 0.00 in
08:30 72.7 °F 70.2 °F 30.06 in SSE 3.0 mph 8.0 mph 92 % 0.00 in
08:35 72.7 °F 70.2 °F 30.07 in SSE 6.0 mph 10.0 mph 92 % 0.00 in
08:40 72.9 °F 70.2 °F 30.07 in WSW 8.0 mph 10.0 mph 91 % 0.00 in
08:45 73.0 °F 70.3 °F 30.07 in SSW 5.0 mph 10.0 mph 91 % 0.00 in
08:50 73.0 °F 70.3 °F 30.07 in SSW 10.0 mph 10.0 mph 91 % 0.00 in
08:56 73.2 °F 70.2 °F 30.07 in South 4.0 mph 11.0 mph 90 % 0.00 in
09:01 73.6 °F 70.5 °F 30.07 in SSW 7.0 mph 12.0 mph 90 % 0.00 in
09:06 73.8 °F 70.7 °F 30.07 in SW 5.0 mph 12.0 mph 90 % 0.00 in
09:11 73.9 °F 70.5 °F 30.07 in SSW 5.0 mph 13.0 mph 89 % 0.00 in
09:16 73.9 °F 70.2 °F 30.07 in South 7.0 mph 13.0 mph 88 % 0.00 in
09:21 74.1 °F 70.3 °F 30.07 in South 7.0 mph 17.0 mph 88 % 0.00 in
09:26 74.5 °F 70.7 °F 30.07 in South 5.0 mph 17.0 mph 88 % 0.00 in
09:31 74.5 °F 70.3 °F 30.07 in SSE 4.0 mph 17.0 mph 87 % 0.00 in
09:36 74.7 °F 70.5 °F 30.07 in SSW 10.0 mph 15.0 mph 87 % 0.00 in
09:41 74.8 °F 70.3 °F 30.07 in SW 8.0 mph 17.0 mph 86 % 0.00 in
09:46 74.8 °F 70.0 °F 30.08 in South 5.0 mph 17.0 mph 85 % 0.00 in
09:51 75.0 °F 70.2 °F 30.08 in South 6.0 mph 17.0 mph 85 % 0.00 in
09:56 75.2 °F 70.0 °F 30.08 in SE 7.0 mph 14.0 mph 84 % 0.00 in
10:01 75.4 °F 70.5 °F 30.08 in SSW 4.0 mph 14.0 mph 85 % 0.00 in
10:06 75.7 °F 70.5 °F 30.08 in SSW 4.0 mph 14.0 mph 84 % 0.00 in
10:11 75.9 °F 70.7 °F 30.08 in South 8.0 mph 11.0 mph 84 % 0.00 in
10:16 76.5 °F 70.9 °F 30.08 in SSW 6.0 mph 11.0 mph 83 % 0.00 in
10:21 76.8 °F 71.2 °F 30.08 in South 13.0 mph 13.0 mph 83 % 0.00 in
10:26 76.8 °F 70.5 °F 30.08 in SSW 6.0 mph 20.0 mph 81 % 0.00 in
10:31 77.2 °F 70.9 °F 30.08 in South 5.0 mph 20.0 mph 81 % 0.00 in
10:36 77.4 °F 71.1 °F 30.08 in SSW 11.0 mph 20.0 mph 81 % 0.00 in
10:41 77.7 °F 71.1 °F 30.08 in SE 5.0 mph 16.0 mph 80 % 0.00 in
10:46 77.7 °F 70.7 °F 30.08 in SSE 11.0 mph 16.0 mph 79 % 0.00 in
10:51 77.7 °F 70.3 °F 30.08 in South 9.0 mph 15.0 mph 78 % 0.00 in
10:56 78.3 °F 70.9 °F 30.08 in SSE 4.0 mph 15.0 mph 78 % 0.00 in
11:01 79.0 °F 71.1 °F 30.07 in South 11.0 mph 15.0 mph 77 % 0.00 in
11:06 79.7 °F 71.4 °F 30.07 in South 5.0 mph 12.0 mph 76 % 0.00 in
11:11 80.1 °F 70.2 °F 30.07 in SE 9.0 mph 12.0 mph 72 % 0.00 in
11:16 79.3 °F 70.3 °F 30.07 in South 13.0 mph 18.0 mph 74 % 0.00 in
11:21 79.9 °F 71.2 °F 30.07 in SE 7.0 mph 18.0 mph 75 % 0.00 in
11:26 80.2 °F 71.2 °F 30.07 in SSW 9.0 mph 18.0 mph 74 % 0.00 in
11:31 80.2 °F 70.9 °F 30.07 in SSW 10.0 mph 15.0 mph 73 % 0.00 in
11:36 80.6 °F 70.7 °F 30.07 in South 4.0 mph 19.0 mph 72 % 0.00 in
11:42 81.0 °F 70.7 °F 30.06 in SW 12.0 mph 19.0 mph 71 % 0.00 in
11:47 81.5 °F 71.2 °F 30.06 in SSE 4.0 mph 19.0 mph 71 % 0.00 in
11:52 81.9 °F 70.3 °F 30.06 in SSE 8.0 mph 19.0 mph 68 % 0.00 in
11:57 81.9 °F 70.7 °F 30.06 in SSW 14.0 mph 17.0 mph 69 % 0.00 in
12:02 81.9 °F 70.7 °F 30.05 in SE 10.0 mph 22.0 mph 69 % 0.00 in
12:07 82.0 °F 70.9 °F 30.05 in South 6.0 mph 22.0 mph 69 % 0.00 in
12:12 82.0 °F 71.2 °F 30.05 in SSW 5.0 mph 22.0 mph 70 % 0.00 in
12:17 82.2 °F 70.2 °F 30.04 in SSE 14.0 mph 17.0 mph 67 % 0.00 in
12:22 81.9 °F 70.3 °F 30.04 in SSW 8.0 mph 17.0 mph 68 % 0.00 in
12:27 82.2 °F 70.5 °F 30.04 in SSW 7.0 mph 17.0 mph 68 % 0.00 in
12:32 83.1 °F 71.1 °F 30.04 in SSE 10.0 mph 16.0 mph 67 % 0.00 in
12:37 82.9 °F 70.9 °F 30.03 in SE 9.0 mph 16.0 mph 67 % 0.00 in
12:42 83.1 °F 70.5 °F 30.03 in South 10.0 mph 16.0 mph 66 % 0.00 in
12:47 83.1 °F 71.1 °F 30.02 in South 10.0 mph 17.0 mph 67 % 0.00 in
12:52 82.9 °F 70.3 °F 30.02 in SE 8.0 mph 17.0 mph 66 % 0.00 in
12:57 82.9 °F 70.9 °F 30.02 in SSW 11.0 mph 17.0 mph 67 % 0.00 in
13:02 83.1 °F 70.2 °F 30.01 in South 10.0 mph 16.0 mph 65 % 0.00 in
13:07 82.8 °F 69.8 °F 30.02 in SSW 19.0 mph 19.0 mph 65 % 0.00 in
13:12 82.9 °F 70.3 °F 30.01 in South 7.0 mph 19.0 mph 66 % 0.00 in
13:17 82.8 °F 70.2 °F 30.01 in South 6.0 mph 19.0 mph 66 % 0.00 in
13:22 83.5 °F 70.9 °F 30.01 in SE 5.0 mph 19.0 mph 66 % 0.00 in
13:27 83.5 °F 69.6 °F 30.01 in SSW 5.0 mph 18.0 mph 63 % 0.00 in
13:32 83.1 °F 70.2 °F 30.01 in South 6.0 mph 17.0 mph 65 % 0.00 in
13:37 83.3 °F 70.3 °F 30.00 in SSE 4.0 mph 17.0 mph 65 % 0.00 in
13:42 83.7 °F 70.7 °F 30.00 in SSE 5.0 mph 17.0 mph 65 % 0.00 in
13:47 83.8 °F 69.4 °F 30.00 in SSE 11.0 mph 20.0 mph 62 % 0.00 in
13:52 84.0 °F 70.0 °F 29.99 in South 9.0 mph 20.0 mph 63 % 0.00 in
13:57 84.2 °F 70.7 °F 29.99 in SE 12.0 mph 20.0 mph 64 % 0.00 in
14:02 84.0 °F 70.5 °F 29.99 in SSE 6.0 mph 19.0 mph 64 % 0.00 in
14:07 84.0 °F 70.0 °F 29.99 in SSE 20.0 mph 20.0 mph 63 % 0.00 in
14:12 84.2 °F 70.2 °F 29.99 in SSW 10.0 mph 21.0 mph 63 % 0.00 in
14:17 84.7 °F 70.7 °F 29.99 in SW 7.0 mph 21.0 mph 63 % 0.00 in
14:22 84.9 °F 70.0 °F 29.99 in South 7.0 mph 21.0 mph 61 % 0.00 in
14:27 85.5 °F 70.0 °F 29.99 in South 9.0 mph 19.0 mph 60 % 0.00 in
14:32 85.1 °F 70.2 °F 29.99 in SE 10.0 mph 18.0 mph 61 % 0.00 in
14:37 85.3 °F 70.7 °F 29.98 in SW 14.0 mph 18.0 mph 62 % 0.00 in
14:42 84.9 °F 70.9 °F 29.98 in SSW 8.0 mph 18.0 mph 63 % 0.00 in
14:47 84.7 °F 70.3 °F 29.98 in SSW 9.0 mph 16.0 mph 62 % 0.00 in
14:52 84.6 °F 70.5 °F 29.98 in SSW 9.0 mph 19.0 mph 63 % 0.00 in
14:57 84.4 °F 70.3 °F 29.98 in SW 13.0 mph 19.0 mph 63 % 0.00 in
15:02 84.4 °F 70.3 °F 29.98 in South 9.0 mph 19.0 mph 63 % 0.00 in
15:07 83.8 °F 70.3 °F 29.98 in SSE 7.0 mph 18.0 mph 64 % 0.00 in
15:12 83.5 °F 70.0 °F 29.98 in South 8.0 mph 18.0 mph 64 % 0.00 in
15:17 83.8 °F 70.3 °F 29.98 in South 7.0 mph 18.0 mph 64 % 0.00 in
15:22 84.0 °F 70.0 °F 29.97 in South 8.0 mph 19.0 mph 63 % 0.00 in
15:27 83.8 °F 70.0 °F 29.97 in South 10.0 mph 19.0 mph 63 % 0.00 in
15:32 83.5 °F 70.0 °F 29.98 in SSW 6.0 mph 19.0 mph 64 % 0.00 in
15:37 83.5 °F 70.0 °F 29.98 in South 9.0 mph 16.0 mph 64 % 0.00 in
15:42 83.5 °F 70.0 °F 29.98 in SW 5.0 mph 16.0 mph 64 % 0.00 in
15:47 83.1 °F 69.6 °F 29.98 in SSE 9.0 mph 17.0 mph 64 % 0.00 in
15:52 82.8 °F 69.8 °F 29.98 in SW 8.0 mph 17.0 mph 65 % 0.00 in
15:57 82.2 °F 69.3 °F 29.98 in SSW 13.0 mph 18.0 mph 65 % 0.00 in
16:02 82.0 °F 69.6 °F 29.97 in SSW 6.0 mph 18.0 mph 66 % 0.00 in
16:07 82.2 °F 69.8 °F 29.97 in SSW 5.0 mph 18.0 mph 66 % 0.00 in
16:12 82.6 °F 69.6 °F 29.97 in SSE 12.0 mph 17.0 mph 65 % 0.00 in
16:17 82.6 °F 69.6 °F 29.97 in SSE 4.0 mph 16.0 mph 65 % 0.00 in
16:22 82.6 °F 69.6 °F 29.97 in SSE 6.0 mph 16.0 mph 65 % 0.00 in
16:27 82.8 °F 69.8 °F 29.97 in WSW 5.0 mph 16.0 mph 65 % 0.00 in
16:32 82.8 °F 69.3 °F 29.97 in SSE 15.0 mph 15.0 mph 64 % 0.00 in
16:37 82.6 °F 69.1 °F 29.97 in SSW 5.0 mph 16.0 mph 64 % 0.00 in
16:42 82.6 °F 70.0 °F 29.97 in SE 3.0 mph 16.0 mph 66 % 0.00 in
16:47 82.4 °F 69.4 °F 29.97 in SSE 11.0 mph 17.0 mph 65 % 0.00 in
16:52 82.2 °F 69.8 °F 29.98 in SSW 9.0 mph 17.0 mph 66 % 0.00 in
16:57 81.9 °F 69.8 °F 29.97 in SSE 6.0 mph 18.0 mph 67 % 0.00 in
17:02 81.3 °F 69.3 °F 29.97 in SSW 11.0 mph 22.0 mph 67 % 0.00 in
17:07 81.1 °F 69.6 °F 29.97 in SSW 5.0 mph 22.0 mph 68 % 0.00 in
17:12 81.1 °F 69.1 °F 29.97 in SE 4.0 mph 22.0 mph 67 % 0.00 in
17:17 81.0 °F 68.9 °F 29.98 in SSW 7.0 mph 17.0 mph 67 % 0.00 in
17:23 80.8 °F 69.3 °F 29.98 in SE 9.0 mph 15.0 mph 68 % 0.00 in
17:28 80.4 °F 68.9 °F 29.98 in SE 8.0 mph 15.0 mph 68 % 0.00 in
17:33 80.1 °F 68.5 °F 29.98 in South 7.0 mph 18.0 mph 68 % 0.00 in
17:38 79.9 °F 68.7 °F 29.98 in South 8.0 mph 18.0 mph 69 % 0.00 in
17:43 79.5 °F 68.5 °F 29.98 in South 6.0 mph 18.0 mph 69 % 0.00 in
17:48 79.2 °F 68.5 °F 29.98 in South 7.0 mph 18.0 mph 70 % 0.00 in
17:53 78.8 °F 68.5 °F 29.98 in SW 5.0 mph 18.0 mph 71 % 0.00 in
17:58 78.4 °F 68.2 °F 29.99 in South 6.0 mph 18.0 mph 71 % 0.00 in
18:03 78.3 °F 68.5 °F 29.99 in SSW 12.0 mph 15.0 mph 72 % 0.00 in
18:08 78.1 °F 68.4 °F 29.99 in SSE 4.0 mph 15.0 mph 72 % 0.00 in
18:13 77.7 °F 68.0 °F 29.99 in South 8.0 mph 15.0 mph 72 % 0.00 in
18:18 77.5 °F 67.5 °F 29.99 in South 6.0 mph 17.0 mph 71 % 0.00 in
18:23 77.4 °F 67.6 °F 29.99 in SSE 2.0 mph 19.0 mph 72 % 0.00 in
18:28 77.0 °F 67.6 °F 29.99 in SSE 7.0 mph 19.0 mph 73 % 0.00 in
18:33 76.8 °F 67.5 °F 29.99 in SE 10.0 mph 19.0 mph 73 % 0.00 in
18:38 76.6 °F 67.6 °F 29.99 in SSE 4.0 mph 12.0 mph 74 % 0.00 in
18:43 76.5 °F 67.6 °F 29.99 in SSE 3.0 mph 12.0 mph 74 % 0.00 in
18:48 76.3 °F 67.8 °F 29.99 in SSW 4.0 mph 12.0 mph 75 % 0.00 in
18:53 75.9 °F 67.8 °F 29.99 in SE 4.0 mph 11.0 mph 76 % 0.00 in
18:58 75.6 °F 67.8 °F 30.00 in South 3.0 mph 9.0 mph 77 % 0.00 in
19:03 75.6 °F 68.2 °F 30.00 in South 3.0 mph 12.0 mph 78 % 0.00 in
19:08 75.6 °F 68.5 °F 30.00 in SW 4.0 mph 12.0 mph 79 % 0.00 in
19:13 75.4 °F 68.4 °F 30.00 in SSE 6.0 mph 12.0 mph 79 % 0.00 in
19:18 75.4 °F 68.4 °F 30.00 in South 5.0 mph 10.0 mph 79 % 0.00 in
19:23 75.2 °F 68.5 °F 30.00 in SSW 8.0 mph 11.0 mph 80 % 0.00 in
19:28 75.0 °F 68.4 °F 30.00 in SSE 4.0 mph 11.0 mph 80 % 0.00 in
19:33 75.0 °F 68.7 °F 30.00 in SE 5.0 mph 11.0 mph 81 % 0.00 in
19:38 74.8 °F 68.5 °F 30.01 in SSE 2.0 mph 9.0 mph 81 % 0.00 in
19:43 74.8 °F 68.9 °F 30.01 in South 6.0 mph 9.0 mph 82 % 0.00 in
19:48 74.8 °F 68.9 °F 30.01 in East 7.0 mph 8.0 mph 82 % 0.00 in
19:53 74.8 °F 68.9 °F 30.01 in SSE 3.0 mph 10.0 mph 82 % 0.00 in
19:58 74.7 °F 68.7 °F 30.01 in SSE 2.0 mph 10.0 mph 82 % 0.00 in
20:03 74.7 °F 69.1 °F 30.01 in ESE 5.0 mph 10.0 mph 83 % 0.00 in
20:08 74.5 °F 68.9 °F 30.02 in SSW 5.0 mph 10.0 mph 83 % 0.00 in
20:13 74.7 °F 69.1 °F 30.02 in SSE 2.0 mph 10.0 mph 83 % 0.00 in
20:18 74.7 °F 69.1 °F 30.02 in SSE 7.0 mph 10.0 mph 83 % 0.00 in
20:23 74.7 °F 69.4 °F 30.02 in SSE 3.0 mph 8.0 mph 84 % 0.00 in
20:28 74.7 °F 69.4 °F 30.02 in SSE 5.0 mph 10.0 mph 84 % 0.00 in
20:33 74.5 °F 69.3 °F 30.02 in SE 4.0 mph 10.0 mph 84 % 0.00 in
20:38 74.3 °F 69.1 °F 30.02 in South 6.0 mph 11.0 mph 84 % 0.00 in
20:43 74.1 °F 68.9 °F 30.02 in SW 6.0 mph 11.0 mph 84 % 0.00 in
20:48 73.9 °F 69.1 °F 30.02 in South 6.0 mph 12.0 mph 85 % 0.00 in
20:53 73.9 °F 69.1 °F 30.02 in South 6.0 mph 12.0 mph 85 % 0.00 in
20:58 73.8 °F 68.9 °F 30.02 in SSE 5.0 mph 12.0 mph 85 % 0.00 in
21:03 73.6 °F 69.1 °F 30.02 in ESE 4.0 mph 8.0 mph 86 % 0.00 in
21:09 73.6 °F 69.1 °F 30.02 in SSE 3.0 mph 7.0 mph 86 % 0.00 in
21:13 73.4 °F 68.9 °F 30.02 in SW 4.0 mph 8.0 mph 86 % 0.00 in
21:18 73.2 °F 68.7 °F 30.02 in South 5.0 mph 8.0 mph 86 % 0.00 in
21:24 73.2 °F 69.1 °F 30.02 in SSE 3.0 mph 8.0 mph 87 % 0.00 in
21:29 73.2 °F 69.1 °F 30.02 in SSE 6.0 mph 8.0 mph 87 % 0.00 in
21:34 73.2 °F 69.1 °F 30.02 in SSE 5.0 mph 10.0 mph 87 % 0.00 in
21:39 73.0 °F 68.9 °F 30.03 in SSW 5.0 mph 10.0 mph 87 % 0.00 in
21:44 73.0 °F 68.9 °F 30.03 in SSW 5.0 mph 10.0 mph 87 % 0.00 in
21:49 72.9 °F 69.1 °F 30.02 in South 4.0 mph 9.0 mph 88 % 0.00 in
21:54 72.9 °F 69.1 °F 30.02 in SE 8.0 mph 8.0 mph 88 % 0.00 in
21:59 72.7 °F 68.9 °F 30.03 in ESE 6.0 mph 9.0 mph 88 % 0.00 in
22:04 72.7 °F 68.9 °F 30.03 in South 8.0 mph 9.0 mph 88 % 0.00 in
22:09 72.7 °F 68.9 °F 30.03 in South 2.0 mph 11.0 mph 88 % 0.00 in
22:14 72.7 °F 68.9 °F 30.03 in SSW 5.0 mph 11.0 mph 88 % 0.00 in
22:19 72.5 °F 68.7 °F 30.03 in South 3.0 mph 11.0 mph 88 % 0.00 in
22:24 72.3 °F 68.9 °F 30.03 in SE 4.0 mph 11.0 mph 89 % 0.00 in
22:29 72.3 °F 68.9 °F 30.03 in South 4.0 mph 11.0 mph 89 % 0.00 in
22:34 72.3 °F 68.9 °F 30.03 in SE 3.0 mph 8.0 mph 89 % 0.00 in
22:39 72.1 °F 68.7 °F 30.03 in SSE 5.0 mph 8.0 mph 89 % 0.00 in
22:44 72.0 °F 68.5 °F 30.03 in SSE 4.0 mph 8.0 mph 89 % 0.00 in
22:49 72.0 °F 68.5 °F 30.03 in SSW 3.0 mph 8.0 mph 89 % 0.00 in
22:54 72.0 °F 68.5 °F 30.03 in SSE 5.0 mph 8.0 mph 89 % 0.00 in
22:59 71.8 °F 68.7 °F 30.03 in South 4.0 mph 9.0 mph 90 % 0.00 in
23:04 71.8 °F 68.7 °F 30.03 in SSE 5.0 mph 9.0 mph 90 % 0.00 in
23:09 71.6 °F 68.5 °F 30.03 in SE 3.0 mph 9.0 mph 90 % 0.00 in
23:14 71.4 °F 68.4 °F 30.03 in SSE 3.0 mph 7.0 mph 90 % 0.00 in
23:19 71.4 °F 68.4 °F 30.03 in SSE 2.0 mph 7.0 mph 90 % 0.00 in
23:24 71.2 °F 68.5 °F 30.03 in South 2.0 mph 6.0 mph 91 % 0.00 in
23:29 71.1 °F 68.4 °F 30.03 in SSW 2.0 mph 7.0 mph 91 % 0.00 in
23:34 71.1 °F 68.4 °F 30.03 in SSE 5.0 mph 7.0 mph 91 % 0.00 in
23:39 70.9 °F 68.4 °F 30.03 in SSE 5.0 mph 7.0 mph 92 % 0.00 in
23:44 70.9 °F 68.4 °F 30.02 in SSW 7.0 mph 7.0 mph 92 % 0.00 in
23:49 70.9 °F 68.4 °F 30.02 in SSE 4.0 mph 8.0 mph 92 % 0.00 in
23:54 70.9 °F 68.4 °F 30.03 in SSE 4.0 mph 10.0 mph 92 % 0.00 in
23:59 70.7 °F 68.5 °F 30.03 in SSE 4.0 mph 10.0 mph 93 % 0.00 in
Spring, Texas: Villages of Bridgestone
Compliments of Weather Underground - 2.75 mb

Script developed by  Jim McMurry - jmcmurry@mwt.net Adapted for the template by  Wim van der Kuil - Leuven-Template.eu

You find our weather info also at:

UK Metoffice

WeatherCloud

Weather Underground

Mid-South Weather Network

AWEKAS

Citizen Weather Observer Program (CWOP)

HAMweather, WeatherForYou, PWS Weather

Equipment we use:

Weather-station
Davis Vantage Vue

Weather-program
Meteohub

Weather-server
Debian 7.9 x86 (Guest)

Provider
DreamHost

Davis Vantage Vue

Meteohub

Debian 7.9 x86 (Guest)

DreamHost